CSN653 UEEE-ZBAD
Flight info
| Callsign | CSN653 |
|---|---|
| Flight time | 3h 59m |
| Altitude | 33000 |
| Route | OGLIS6E OGLIS B148 ROLBI/K0841F350 B148 ODANA/K0833F340 N620 RONET/K0839F360 N620 NALEB/K0835F350 G494 NINON/K0833F360 G494 RUNET/K0763F260 G494 SIMLI/K0835S1100 A588 HRB G212 BUMDU BUMDU5L |
| Aircraft | B738/M-SDE2E3FGHIRWXY/LB1 |
Departure
| Time | 2026-04-23 05:39 |
|---|---|
| Airport | Platon Oyunsky Yakutsk International Airport (UEEE) |
Arrival
| Time | 2026-04-23 09:38 |
|---|---|
| Airport | Beijing Daxing International Airport (ZBAD) |
| Time | Latitude | Longitude | Altitude | Speed | Heading |
|---|---|---|---|---|---|
| 2026-04-23 05:20 | 62.08687 | 129.75175 | 332 ft | 0 kts | 269° |
| 2026-04-23 05:24 | 62.08687 | 129.75176 | 332 ft | 2 kts | 269° |
| 2026-04-23 05:24 | 62.08687 | 129.75230 | 329 ft | 4 kts | 269° |
| 2026-04-23 05:24 | 62.08688 | 129.75287 | 327 ft | 4 kts | 269° |
| 2026-04-23 05:25 | 62.08688 | 129.75339 | 328 ft | 3 kts | 269° |
| 2026-04-23 05:25 | 62.08684 | 129.75387 | 328 ft | 4 kts | 316° |
| 2026-04-23 05:25 | 62.08663 | 129.75405 | 328 ft | 4 kts | 8° |
| 2026-04-23 05:25 | 62.08645 | 129.75393 | 328 ft | 0 kts | 30° |
| 2026-04-23 05:29 | 62.08650 | 129.75400 | 328 ft | 3 kts | 30° |
| 2026-04-23 05:29 | 62.08689 | 129.75464 | 331 ft | 10 kts | 64° |
| 2026-04-23 05:29 | 62.08673 | 129.75595 | 330 ft | 10 kts | 127° |
| 2026-04-23 05:30 | 62.08636 | 129.75724 | 332 ft | 10 kts | 120° |
| 2026-04-23 05:30 | 62.08656 | 129.75835 | 329 ft | 9 kts | 31° |
| 2026-04-23 05:30 | 62.08715 | 129.75907 | 327 ft | 10 kts | 29° |
| 2026-04-23 05:30 | 62.08780 | 129.75986 | 329 ft | 11 kts | 30° |
| 2026-04-23 05:31 | 62.08851 | 129.76072 | 328 ft | 12 kts | 29° |
| 2026-04-23 05:31 | 62.08929 | 129.76165 | 327 ft | 13 kts | 29° |
| 2026-04-23 05:31 | 62.09011 | 129.76263 | 328 ft | 14 kts | 29° |
| 2026-04-23 05:31 | 62.09099 | 129.76368 | 327 ft | 15 kts | 28° |
| 2026-04-23 05:32 | 62.09193 | 129.76478 | 328 ft | 16 kts | 28° |
| 2026-04-23 05:32 | 62.09291 | 129.76596 | 327 ft | 17 kts | 30° |
| 2026-04-23 05:32 | 62.09394 | 129.76721 | 325 ft | 17 kts | 30° |
| 2026-04-23 05:32 | 62.09500 | 129.76851 | 325 ft | 18 kts | 30° |
| 2026-04-23 05:33 | 62.09610 | 129.76988 | 323 ft | 19 kts | 31° |
| 2026-04-23 05:33 | 62.09723 | 129.77129 | 327 ft | 19 kts | 29° |
| 2026-04-23 05:33 | 62.09841 | 129.77271 | 324 ft | 20 kts | 29° |
| 2026-04-23 05:33 | 62.09962 | 129.77411 | 324 ft | 20 kts | 28° |
| 2026-04-23 05:34 | 62.10086 | 129.77552 | 322 ft | 21 kts | 28° |
| 2026-04-23 05:34 | 62.10182 | 129.77702 | 322 ft | 15 kts | 75° |
| 2026-04-23 05:34 | 62.10141 | 129.77900 | 323 ft | 15 kts | 126° |
| 2026-04-23 05:34 | 62.10081 | 129.78073 | 323 ft | 14 kts | 127° |
| 2026-04-23 05:35 | 62.10023 | 129.78238 | 323 ft | 14 kts | 127° |
| 2026-04-23 05:35 | 62.09976 | 129.78406 | 326 ft | 13 kts | 103° |
| 2026-04-23 05:35 | 62.10009 | 129.78574 | 325 ft | 13 kts | 45° |
| 2026-04-23 05:35 | 62.10076 | 129.78690 | 323 ft | 12 kts | 37° |
| 2026-04-23 05:36 | 62.10145 | 129.78799 | 321 ft | 12 kts | 37° |
| 2026-04-23 05:36 | 62.10213 | 129.78908 | 321 ft | 12 kts | 37° |
| 2026-04-23 05:36 | 62.10283 | 129.79018 | 321 ft | 13 kts | 36° |
| 2026-04-23 05:36 | 62.10357 | 129.79135 | 323 ft | 13 kts | 37° |
| 2026-04-23 05:37 | 62.10431 | 129.79253 | 321 ft | 14 kts | 37° |
| 2026-04-23 05:37 | 62.10510 | 129.79381 | 339 ft | 14 kts | 37° |
| 2026-04-23 05:37 | 62.10605 | 129.79417 | 321 ft | 14 kts | 17° |
| 2026-04-23 05:37 | 62.10583 | 129.79507 | 319 ft | 13 kts | 220° |
| 2026-04-23 05:38 | 62.10519 | 129.79397 | 321 ft | 26 kts | 217° |
| 2026-04-23 05:38 | 62.10180 | 129.78855 | 322 ft | 94 kts | 217° |
| 2026-04-23 05:38 | 62.09494 | 129.77756 | 326 ft | 150 kts | 217° |
| 2026-04-23 05:38 | 62.08528 | 129.76208 | 385 ft | 193 kts | 217° |
| 2026-04-23 05:39 | 62.07440 | 129.74315 | 791 ft | 210 kts | 219° |
| 2026-04-23 05:39 | 62.06219 | 129.72280 | 954 ft | 235 kts | 214° |
| 2026-04-23 05:39 | 62.04902 | 129.70274 | 1777 ft | 229 kts | 213° |
| 2026-04-23 05:39 | 62.03630 | 129.68320 | 2531 ft | 227 kts | 213° |
| 2026-04-23 05:40 | 62.02283 | 129.66227 | 2685 ft | 250 kts | 214° |
| 2026-04-23 05:40 | 62.00883 | 129.64020 | 3265 ft | 255 kts | 214° |
| 2026-04-23 05:40 | 61.99447 | 129.61745 | 3891 ft | 259 kts | 214° |
| 2026-04-23 05:40 | 61.97991 | 129.59440 | 4548 ft | 262 kts | 214° |
| 2026-04-23 05:41 | 61.96476 | 129.57309 | 5190 ft | 262 kts | 199° |
| 2026-04-23 05:41 | 61.94711 | 129.56766 | 5945 ft | 253 kts | 170° |
| 2026-04-23 05:41 | 61.93048 | 129.57864 | 6679 ft | 251 kts | 152° |
| 2026-04-23 05:41 | 61.91488 | 129.59606 | 7252 ft | 255 kts | 150° |
| 2026-04-23 05:42 | 61.89940 | 129.61417 | 7836 ft | 259 kts | 149° |
| 2026-04-23 05:42 | 61.88356 | 129.63276 | 8501 ft | 260 kts | 150° |
| 2026-04-23 05:42 | 61.86756 | 129.65139 | 9146 ft | 264 kts | 150° |
| 2026-04-23 05:42 | 61.85134 | 129.67016 | 9808 ft | 268 kts | 150° |
| 2026-04-23 05:43 | 61.84043 | 129.68269 | 10224 ft | 270 kts | 150° |
| 2026-04-23 05:43 | 61.81745 | 129.70899 | 10527 ft | 294 kts | 150° |
| 2026-04-23 05:43 | 61.79884 | 129.73021 | 10689 ft | 313 kts | 150° |
| 2026-04-23 05:43 | 61.77902 | 129.75272 | 10854 ft | 332 kts | 150° |
| 2026-04-23 05:44 | 61.75838 | 129.77605 | 11274 ft | 341 kts | 150° |
| 2026-04-23 05:44 | 61.73729 | 129.79973 | 11849 ft | 344 kts | 149° |
| 2026-04-23 05:44 | 61.71606 | 129.82367 | 12481 ft | 347 kts | 149° |
| 2026-04-23 05:44 | 61.70192 | 129.83960 | 12902 ft | 349 kts | 149° |
| 2026-04-23 05:45 | 61.67301 | 129.87213 | 13750 ft | 354 kts | 149° |
| 2026-04-23 05:45 | 61.65856 | 129.88829 | 14151 ft | 356 kts | 150° |
| 2026-04-23 05:45 | 61.62669 | 129.90821 | 14934 ft | 367 kts | 168° |
| 2026-04-23 05:45 | 61.60127 | 129.91529 | 15538 ft | 370 kts | 168° |
| 2026-04-23 05:46 | 61.58419 | 129.91985 | 15918 ft | 373 kts | 168° |
| 2026-04-23 05:46 | 61.54972 | 129.92899 | 16667 ft | 378 kts | 168° |
| 2026-04-23 05:46 | 61.52349 | 129.93603 | 17233 ft | 382 kts | 167° |
| 2026-04-23 05:46 | 61.50560 | 129.94088 | 17618 ft | 384 kts | 167° |
| 2026-04-23 05:47 | 61.47935 | 129.94809 | 18159 ft | 388 kts | 167° |
| 2026-04-23 05:47 | 61.45241 | 129.95555 | 18656 ft | 392 kts | 167° |
| 2026-04-23 05:47 | 61.42531 | 129.96307 | 19177 ft | 394 kts | 167° |
| 2026-04-23 05:47 | 61.39808 | 129.97064 | 19684 ft | 396 kts | 167° |
| 2026-04-23 05:48 | 61.37066 | 129.97827 | 20162 ft | 399 kts | 167° |
| 2026-04-23 05:48 | 61.34305 | 129.98594 | 20641 ft | 402 kts | 167° |
| 2026-04-23 05:48 | 61.31527 | 129.99365 | 21128 ft | 404 kts | 167° |
| 2026-04-23 05:48 | 61.28734 | 130.00137 | 21629 ft | 406 kts | 167° |
| 2026-04-23 05:49 | 61.25922 | 130.00912 | 22099 ft | 408 kts | 167° |
| 2026-04-23 05:49 | 61.23082 | 130.01694 | 22556 ft | 411 kts | 167° |
| 2026-04-23 05:49 | 61.20238 | 130.02475 | 22984 ft | 414 kts | 167° |
| 2026-04-23 05:49 | 61.17374 | 130.03263 | 23424 ft | 416 kts | 167° |
| 2026-04-23 05:50 | 61.14489 | 130.04055 | 23808 ft | 419 kts | 167° |
| 2026-04-23 05:50 | 61.11592 | 130.04848 | 24167 ft | 421 kts | 167° |
| 2026-04-23 05:50 | 61.08682 | 130.05643 | 24529 ft | 423 kts | 167° |
| 2026-04-23 05:50 | 61.05788 | 130.06431 | 24889 ft | 424 kts | 167° |
| 2026-04-23 05:51 | 61.02856 | 130.07227 | 25221 ft | 427 kts | 167° |
| 2026-04-23 05:51 | 60.99901 | 130.08029 | 25567 ft | 428 kts | 167° |
| 2026-04-23 05:51 | 60.96938 | 130.08832 | 25902 ft | 430 kts | 167° |
| 2026-04-23 05:51 | 60.93960 | 130.09638 | 26233 ft | 432 kts | 167° |
| 2026-04-23 05:52 | 60.90975 | 130.10443 | 26551 ft | 434 kts | 167° |
| 2026-04-23 05:52 | 60.87966 | 130.11252 | 26863 ft | 436 kts | 168° |
| 2026-04-23 05:52 | 60.84948 | 130.12061 | 27171 ft | 438 kts | 168° |
| 2026-04-23 05:52 | 60.81962 | 130.12858 | 27473 ft | 439 kts | 168° |
| 2026-04-23 05:53 | 60.78923 | 130.13671 | 27771 ft | 441 kts | 168° |
| 2026-04-23 05:53 | 60.75880 | 130.14486 | 28061 ft | 443 kts | 168° |
| 2026-04-23 05:53 | 60.72814 | 130.15308 | 28346 ft | 444 kts | 168° |
| 2026-04-23 05:53 | 60.69738 | 130.16138 | 28616 ft | 446 kts | 168° |
| 2026-04-23 05:54 | 60.66656 | 130.16967 | 28905 ft | 447 kts | 168° |
| 2026-04-23 05:54 | 60.63575 | 130.17790 | 29320 ft | 445 kts | 168° |
| 2026-04-23 05:54 | 60.60506 | 130.18607 | 29784 ft | 443 kts | 168° |
| 2026-04-23 05:54 | 60.57446 | 130.19419 | 30162 ft | 442 kts | 169° |
| 2026-04-23 05:55 | 60.54394 | 130.20227 | 30441 ft | 442 kts | 169° |
| 2026-04-23 05:55 | 60.51385 | 130.21023 | 30716 ft | 442 kts | 169° |
| 2026-04-23 05:55 | 60.48335 | 130.21826 | 31019 ft | 441 kts | 169° |
| 2026-04-23 05:55 | 60.45291 | 130.22626 | 31333 ft | 439 kts | 169° |
| 2026-04-23 05:56 | 60.42256 | 130.23422 | 31623 ft | 439 kts | 169° |
| 2026-04-23 05:56 | 60.39233 | 130.24214 | 31894 ft | 439 kts | 169° |
| 2026-04-23 05:56 | 60.36201 | 130.25007 | 32164 ft | 438 kts | 169° |
| 2026-04-23 05:56 | 60.33177 | 130.25796 | 32451 ft | 437 kts | 169° |
| 2026-04-23 05:57 | 60.30197 | 130.26572 | 32741 ft | 436 kts | 169° |
| 2026-04-23 05:57 | 60.27187 | 130.27355 | 33003 ft | 436 kts | 170° |
| 2026-04-23 05:57 | 60.24169 | 130.28138 | 33262 ft | 436 kts | 170° |
| 2026-04-23 05:57 | 60.21163 | 130.28918 | 33538 ft | 435 kts | 170° |
| 2026-04-23 05:58 | 60.18159 | 130.29695 | 33797 ft | 434 kts | 170° |
| 2026-04-23 05:58 | 60.15185 | 130.30461 | 34028 ft | 434 kts | 170° |
| 2026-04-23 05:58 | 60.12182 | 130.31236 | 34214 ft | 435 kts | 170° |
| 2026-04-23 05:58 | 60.09180 | 130.32010 | 34382 ft | 435 kts | 170° |
| 2026-04-23 05:59 | 60.06165 | 130.32785 | 34550 ft | 436 kts | 170° |
| 2026-04-23 05:59 | 60.03155 | 130.33557 | 34733 ft | 436 kts | 170° |
| 2026-04-23 05:59 | 60.00133 | 130.34330 | 34904 ft | 436 kts | 170° |
| 2026-04-23 05:59 | 59.97121 | 130.35099 | 35051 ft | 437 kts | 171° |
| 2026-04-23 06:00 | 59.94135 | 130.35860 | 35047 ft | 439 kts | 170° |
| 2026-04-23 06:00 | 59.88077 | 130.37400 | 35050 ft | 437 kts | 170° |
| 2026-04-23 06:01 | 59.82065 | 130.38921 | 35050 ft | 434 kts | 171° |
| 2026-04-23 06:01 | 59.76095 | 130.40426 | 35056 ft | 431 kts | 171° |
| 2026-04-23 06:02 | 59.70144 | 130.41924 | 35052 ft | 430 kts | 171° |
| 2026-04-23 06:02 | 59.64231 | 130.43407 | 35055 ft | 430 kts | 171° |
| 2026-04-23 06:03 | 59.58276 | 130.44894 | 35052 ft | 432 kts | 171° |
| 2026-04-23 06:03 | 59.52293 | 130.46383 | 35054 ft | 434 kts | 171° |
| 2026-04-23 06:04 | 59.46272 | 130.47876 | 35051 ft | 436 kts | 171° |
| 2026-04-23 06:04 | 59.40224 | 130.49370 | 35051 ft | 438 kts | 171° |
| 2026-04-23 06:05 | 59.34197 | 130.50851 | 35048 ft | 440 kts | 171° |
| 2026-04-23 06:05 | 59.28091 | 130.52347 | 35045 ft | 441 kts | 171° |
| 2026-04-23 06:06 | 59.21986 | 130.53842 | 35043 ft | 442 kts | 171° |
| 2026-04-23 06:06 | 59.15891 | 130.55326 | 35040 ft | 441 kts | 171° |
| 2026-04-23 06:07 | 59.09839 | 130.56792 | 35041 ft | 441 kts | 171° |
| 2026-04-23 06:07 | 59.03746 | 130.58264 | 35037 ft | 440 kts | 171° |
| 2026-04-23 06:08 | 58.97679 | 130.59723 | 35038 ft | 439 kts | 171° |
| 2026-04-23 06:08 | 58.91623 | 130.61173 | 35037 ft | 438 kts | 171° |
| 2026-04-23 06:09 | 58.85604 | 130.62608 | 35037 ft | 438 kts | 172° |
| 2026-04-23 06:09 | 58.79549 | 130.64038 | 35032 ft | 437 kts | 174° |
| 2026-04-23 06:09 | 58.76505 | 130.63993 | 35027 ft | 439 kts | 186° |
| 2026-04-23 06:10 | 58.73507 | 130.62814 | 35035 ft | 441 kts | 195° |
| 2026-04-23 06:10 | 58.70650 | 130.60621 | 35029 ft | 443 kts | 206° |
| 2026-04-23 06:10 | 58.67982 | 130.57798 | 35044 ft | 443 kts | 207° |
| 2026-04-23 06:11 | 58.62601 | 130.51922 | 35035 ft | 444 kts | 207° |
| 2026-04-23 06:11 | 58.57199 | 130.46092 | 35028 ft | 445 kts | 207° |
| 2026-04-23 06:12 | 58.51778 | 130.40340 | 35028 ft | 446 kts | 207° |
| 2026-04-23 06:12 | 58.43632 | 130.31775 | 35032 ft | 447 kts | 207° |
| 2026-04-23 06:13 | 58.38161 | 130.26046 | 35029 ft | 448 kts | 207° |
| 2026-04-23 06:13 | 58.32691 | 130.20332 | 35031 ft | 448 kts | 207° |
| 2026-04-23 06:14 | 58.27251 | 130.14668 | 35030 ft | 448 kts | 207° |
| 2026-04-23 06:14 | 58.21779 | 130.08989 | 35041 ft | 448 kts | 207° |
| 2026-04-23 06:15 | 58.16308 | 130.03342 | 35035 ft | 447 kts | 207° |
| 2026-04-23 06:15 | 58.10831 | 129.97721 | 35033 ft | 447 kts | 207° |
| 2026-04-23 06:16 | 58.05367 | 129.92124 | 35040 ft | 446 kts | 207° |
| 2026-04-23 06:16 | 57.99915 | 129.86555 | 35041 ft | 445 kts | 207° |
| 2026-04-23 06:17 | 57.94455 | 129.80990 | 35046 ft | 445 kts | 207° |
| 2026-04-23 06:17 | 57.89048 | 129.75501 | 35042 ft | 444 kts | 207° |
| 2026-04-23 06:18 | 57.83603 | 129.69990 | 35039 ft | 444 kts | 207° |
| 2026-04-23 06:18 | 57.78163 | 129.64502 | 35046 ft | 443 kts | 207° |
| 2026-04-23 06:19 | 57.72743 | 129.59056 | 35075 ft | 446 kts | 207° |
| 2026-04-23 06:19 | 57.70000 | 129.56306 | 35208 ft | 447 kts | 207° |
| 2026-04-23 06:19 | 57.67265 | 129.53570 | 35433 ft | 445 kts | 207° |
| 2026-04-23 06:20 | 57.64527 | 129.50835 | 35651 ft | 444 kts | 207° |
| 2026-04-23 06:20 | 57.61794 | 129.48111 | 35826 ft | 444 kts | 207° |
| 2026-04-23 06:20 | 57.59068 | 129.45397 | 35951 ft | 444 kts | 207° |
| 2026-04-23 06:20 | 57.56333 | 129.42678 | 36024 ft | 446 kts | 207° |
| 2026-04-23 06:21 | 57.50839 | 129.37232 | 36018 ft | 447 kts | 207° |
| 2026-04-23 06:21 | 57.45363 | 129.31820 | 36033 ft | 444 kts | 207° |
| 2026-04-23 06:22 | 57.39949 | 129.26490 | 36020 ft | 442 kts | 207° |
| 2026-04-23 06:22 | 57.34514 | 129.21157 | 36033 ft | 441 kts | 207° |
| 2026-04-23 06:23 | 57.29093 | 129.15857 | 36022 ft | 440 kts | 207° |
| 2026-04-23 06:23 | 57.23683 | 129.10584 | 36032 ft | 440 kts | 207° |
| 2026-04-23 06:24 | 57.18261 | 129.05318 | 36023 ft | 440 kts | 207° |
| 2026-04-23 06:24 | 57.12872 | 129.00099 | 36033 ft | 441 kts | 207° |
| 2026-04-23 06:25 | 57.07414 | 128.94831 | 36037 ft | 441 kts | 207° |
| 2026-04-23 06:25 | 57.01994 | 128.89616 | 36030 ft | 442 kts | 207° |
| 2026-04-23 06:26 | 56.96541 | 128.84388 | 36036 ft | 442 kts | 207° |
| 2026-04-23 06:26 | 56.91068 | 128.79156 | 36028 ft | 443 kts | 207° |
| 2026-04-23 06:27 | 56.85598 | 128.73939 | 36039 ft | 443 kts | 207° |
| 2026-04-23 06:27 | 56.80138 | 128.68755 | 36040 ft | 443 kts | 207° |
| 2026-04-23 06:28 | 56.74696 | 128.63627 | 36042 ft | 442 kts | 207° |
| 2026-04-23 06:28 | 56.69217 | 128.58483 | 36041 ft | 442 kts | 207° |
| 2026-04-23 06:29 | 56.63749 | 128.53357 | 36048 ft | 441 kts | 207° |
| 2026-04-23 06:29 | 56.58295 | 128.48254 | 36049 ft | 441 kts | 207° |
| 2026-04-23 06:30 | 56.52842 | 128.43169 | 36032 ft | 440 kts | 207° |
| 2026-04-23 06:30 | 56.47428 | 128.38136 | 36044 ft | 439 kts | 207° |
| 2026-04-23 06:31 | 56.41989 | 128.33098 | 36041 ft | 439 kts | 207° |
| 2026-04-23 06:31 | 56.36549 | 128.28063 | 36042 ft | 439 kts | 207° |
| 2026-04-23 06:32 | 56.31116 | 128.23052 | 36047 ft | 438 kts | 207° |
| 2026-04-23 06:32 | 56.25744 | 128.17994 | 36037 ft | 437 kts | 207° |
| 2026-04-23 06:33 | 56.20367 | 128.12883 | 36046 ft | 437 kts | 207° |
| 2026-04-23 06:33 | 56.14984 | 128.07789 | 36033 ft | 437 kts | 207° |
| 2026-04-23 06:34 | 56.09599 | 128.02717 | 36049 ft | 437 kts | 207° |
| 2026-04-23 06:34 | 56.04244 | 127.97690 | 36048 ft | 436 kts | 207° |
| 2026-04-23 06:35 | 55.99729 | 127.93463 | 36053 ft | 436 kts | 207° |
| 2026-04-23 06:35 | 55.94370 | 127.88461 | 36051 ft | 436 kts | 206° |
| 2026-04-23 06:36 | 55.88965 | 127.83538 | 36041 ft | 436 kts | 205° |
| 2026-04-23 06:36 | 55.83508 | 127.78788 | 36046 ft | 436 kts | 205° |
| 2026-04-23 06:37 | 55.78056 | 127.74057 | 36052 ft | 436 kts | 205° |
| 2026-04-23 06:37 | 55.72613 | 127.69317 | 36049 ft | 435 kts | 205° |
| 2026-04-23 06:38 | 55.67208 | 127.64613 | 36056 ft | 435 kts | 205° |
| 2026-04-23 06:38 | 55.61761 | 127.59883 | 36048 ft | 435 kts | 205° |
| 2026-04-23 06:39 | 55.56319 | 127.55174 | 36049 ft | 435 kts | 205° |
| 2026-04-23 06:39 | 55.50866 | 127.50470 | 36045 ft | 435 kts | 205° |
| 2026-04-23 06:40 | 55.45426 | 127.45790 | 36044 ft | 435 kts | 204° |
| 2026-04-23 06:40 | 55.39994 | 127.41125 | 36051 ft | 434 kts | 204° |
| 2026-04-23 06:41 | 55.34541 | 127.36534 | 36045 ft | 433 kts | 200° |
| 2026-04-23 06:41 | 55.28765 | 127.33999 | 36046 ft | 430 kts | 184° |
| 2026-04-23 06:42 | 55.22794 | 127.33105 | 36048 ft | 430 kts | 184° |
| 2026-04-23 06:42 | 55.16830 | 127.32210 | 36043 ft | 430 kts | 184° |
| 2026-04-23 06:43 | 55.10875 | 127.31259 | 36047 ft | 429 kts | 184° |
| 2026-04-23 06:43 | 55.04925 | 127.30287 | 36050 ft | 429 kts | 184° |
| 2026-04-23 06:44 | 54.98973 | 127.29314 | 36052 ft | 429 kts | 184° |
| 2026-04-23 06:44 | 54.93058 | 127.28348 | 36047 ft | 429 kts | 184° |
| 2026-04-23 06:45 | 54.87104 | 127.27379 | 36050 ft | 429 kts | 184° |
| 2026-04-23 06:45 | 54.81153 | 127.26419 | 36061 ft | 430 kts | 184° |
| 2026-04-23 06:46 | 54.75195 | 127.25469 | 36055 ft | 430 kts | 184° |
| 2026-04-23 06:46 | 54.69223 | 127.24523 | 36050 ft | 430 kts | 184° |
| 2026-04-23 06:47 | 54.63294 | 127.23581 | 36060 ft | 430 kts | 184° |
| 2026-04-23 06:47 | 54.57318 | 127.22630 | 36057 ft | 431 kts | 184° |
| 2026-04-23 06:48 | 54.51348 | 127.21680 | 36055 ft | 431 kts | 184° |
| 2026-04-23 06:48 | 54.45378 | 127.20735 | 36052 ft | 431 kts | 184° |
| 2026-04-23 06:49 | 54.39446 | 127.19802 | 36059 ft | 431 kts | 184° |
| 2026-04-23 06:49 | 54.33461 | 127.18861 | 36053 ft | 430 kts | 184° |
| 2026-04-23 06:50 | 54.27491 | 127.17925 | 36052 ft | 430 kts | 184° |
| 2026-04-23 06:50 | 54.21517 | 127.16990 | 36053 ft | 430 kts | 184° |
| 2026-04-23 06:51 | 54.15544 | 127.16059 | 36039 ft | 431 kts | 184° |
| 2026-04-23 06:51 | 54.09561 | 127.15128 | 36048 ft | 431 kts | 184° |
| 2026-04-23 06:52 | 54.03624 | 127.14205 | 36044 ft | 431 kts | 184° |
| 2026-04-23 06:52 | 53.97654 | 127.13282 | 36045 ft | 431 kts | 184° |
| 2026-04-23 06:53 | 53.91676 | 127.12358 | 36050 ft | 431 kts | 184° |
| 2026-04-23 06:53 | 53.85695 | 127.11438 | 36044 ft | 431 kts | 184° |
| 2026-04-23 06:54 | 53.79715 | 127.10517 | 36046 ft | 431 kts | 184° |
| 2026-04-23 06:54 | 53.73777 | 127.09607 | 36037 ft | 432 kts | 184° |
| 2026-04-23 06:55 | 53.67772 | 127.09372 | 36034 ft | 431 kts | 172° |
| 2026-04-23 06:55 | 53.61891 | 127.11389 | 36039 ft | 431 kts | 167° |
| 2026-04-23 06:56 | 53.56066 | 127.13546 | 36037 ft | 432 kts | 167° |
| 2026-04-23 06:56 | 53.50182 | 127.15649 | 36035 ft | 432 kts | 168° |
| 2026-04-23 06:57 | 53.44291 | 127.17719 | 36036 ft | 433 kts | 168° |
| 2026-04-23 06:57 | 53.38373 | 127.19788 | 36039 ft | 433 kts | 168° |
| 2026-04-23 06:58 | 53.32501 | 127.21839 | 36035 ft | 434 kts | 168° |
| 2026-04-23 06:58 | 53.26582 | 127.23906 | 36045 ft | 434 kts | 168° |
| 2026-04-23 06:59 | 53.20652 | 127.25970 | 36032 ft | 435 kts | 168° |
| 2026-04-23 06:59 | 53.14720 | 127.28023 | 36043 ft | 435 kts | 168° |
| 2026-04-23 07:00 | 53.08777 | 127.30072 | 36045 ft | 436 kts | 168° |
| 2026-04-23 07:00 | 53.02836 | 127.32115 | 36044 ft | 436 kts | 168° |
| 2026-04-23 07:01 | 52.96926 | 127.34142 | 36049 ft | 436 kts | 168° |
| 2026-04-23 07:01 | 52.90968 | 127.36178 | 36043 ft | 437 kts | 168° |
| 2026-04-23 07:02 | 52.85004 | 127.38211 | 36044 ft | 437 kts | 168° |
| 2026-04-23 07:02 | 52.79019 | 127.40247 | 36043 ft | 438 kts | 168° |
| 2026-04-23 07:03 | 52.73081 | 127.42257 | 36044 ft | 438 kts | 168° |
| 2026-04-23 07:03 | 52.67089 | 127.44284 | 36044 ft | 439 kts | 168° |
| 2026-04-23 07:04 | 52.61098 | 127.46329 | 36050 ft | 439 kts | 168° |
| 2026-04-23 07:04 | 52.55138 | 127.48361 | 36040 ft | 440 kts | 168° |
| 2026-04-23 07:05 | 52.49144 | 127.50391 | 36045 ft | 440 kts | 168° |
| 2026-04-23 07:05 | 52.43135 | 127.52420 | 36035 ft | 440 kts | 168° |
| 2026-04-23 07:06 | 52.37134 | 127.54440 | 36045 ft | 440 kts | 168° |
| 2026-04-23 07:06 | 52.31120 | 127.56459 | 36038 ft | 441 kts | 168° |
| 2026-04-23 07:07 | 52.25109 | 127.58471 | 36036 ft | 441 kts | 168° |
| 2026-04-23 07:07 | 52.19134 | 127.60463 | 36037 ft | 441 kts | 168° |
| 2026-04-23 07:08 | 52.13103 | 127.62468 | 36043 ft | 441 kts | 168° |
| 2026-04-23 07:08 | 52.07081 | 127.64465 | 36037 ft | 442 kts | 168° |
| 2026-04-23 07:09 | 52.01051 | 127.66447 | 36038 ft | 442 kts | 169° |
| 2026-04-23 07:09 | 51.94912 | 127.66991 | 36045 ft | 442 kts | 179° |
| 2026-04-23 07:10 | 51.88782 | 127.66900 | 36040 ft | 443 kts | 179° |
| 2026-04-23 07:10 | 51.82612 | 127.66834 | 36036 ft | 443 kts | 179° |
| 2026-04-23 07:11 | 51.76421 | 127.66818 | 36034 ft | 444 kts | 179° |
| 2026-04-23 07:12 | 51.67144 | 127.66819 | 36038 ft | 444 kts | 179° |
| 2026-04-23 07:12 | 51.60950 | 127.66819 | 36037 ft | 445 kts | 179° |
| 2026-04-23 07:13 | 51.54754 | 127.66820 | 36037 ft | 445 kts | 179° |
| 2026-04-23 07:13 | 51.48587 | 127.66818 | 36040 ft | 445 kts | 179° |
| 2026-04-23 07:14 | 51.42352 | 127.66812 | 36042 ft | 446 kts | 179° |
| 2026-04-23 07:14 | 51.36172 | 127.66810 | 36041 ft | 446 kts | 179° |
| 2026-04-23 07:15 | 51.29974 | 127.66296 | 36042 ft | 447 kts | 188° |
| 2026-04-23 07:15 | 51.23820 | 127.64627 | 36043 ft | 448 kts | 189° |
| 2026-04-23 07:16 | 51.17672 | 127.62919 | 36041 ft | 449 kts | 188° |
| 2026-04-23 07:16 | 51.11539 | 127.61279 | 36042 ft | 450 kts | 188° |
| 2026-04-23 07:17 | 51.05351 | 127.59653 | 36040 ft | 450 kts | 188° |
| 2026-04-23 07:17 | 50.99161 | 127.58029 | 36041 ft | 451 kts | 188° |
| 2026-04-23 07:18 | 50.94003 | 127.56675 | 36043 ft | 452 kts | 188° |
| 2026-04-23 07:18 | 50.86772 | 127.54795 | 36038 ft | 453 kts | 188° |
| 2026-04-23 07:19 | 50.81599 | 127.53465 | 36043 ft | 453 kts | 188° |
| 2026-04-23 07:19 | 50.75372 | 127.51862 | 36043 ft | 454 kts | 188° |
| 2026-04-23 07:20 | 50.69124 | 127.50250 | 36033 ft | 454 kts | 189° |
| 2026-04-23 07:20 | 50.62863 | 127.48639 | 36033 ft | 455 kts | 189° |
| 2026-04-23 07:21 | 50.56635 | 127.47040 | 36023 ft | 455 kts | 189° |
| 2026-04-23 07:21 | 50.50377 | 127.45436 | 36022 ft | 456 kts | 189° |
| 2026-04-23 07:22 | 50.44111 | 127.43833 | 36023 ft | 456 kts | 189° |
| 2026-04-23 07:22 | 50.37877 | 127.41951 | 36008 ft | 456 kts | 198° |
| 2026-04-23 07:23 | 50.31919 | 127.38497 | 36018 ft | 456 kts | 201° |
| 2026-04-23 07:23 | 50.25957 | 127.35221 | 36028 ft | 457 kts | 197° |
| 2026-04-23 07:24 | 50.19845 | 127.32440 | 36029 ft | 457 kts | 197° |
| 2026-04-23 07:24 | 50.13666 | 127.30079 | 36039 ft | 457 kts | 189° |
| 2026-04-23 07:25 | 50.07371 | 127.28546 | 36037 ft | 457 kts | 189° |
| 2026-04-23 07:25 | 50.01075 | 127.27056 | 36044 ft | 457 kts | 189° |
| 2026-04-23 07:26 | 49.94794 | 127.25526 | 36038 ft | 457 kts | 189° |
| 2026-04-23 07:26 | 49.88499 | 127.23966 | 36048 ft | 457 kts | 189° |
| 2026-04-23 07:27 | 49.82251 | 127.22414 | 36041 ft | 458 kts | 190° |
| 2026-04-23 07:27 | 49.75948 | 127.20852 | 36040 ft | 458 kts | 190° |
| 2026-04-23 07:28 | 49.69645 | 127.19294 | 36044 ft | 459 kts | 190° |
| 2026-04-23 07:28 | 49.63327 | 127.17739 | 36047 ft | 460 kts | 190° |
| 2026-04-23 07:29 | 49.57004 | 127.16186 | 36048 ft | 461 kts | 190° |
| 2026-04-23 07:29 | 49.50701 | 127.14644 | 36042 ft | 462 kts | 190° |
| 2026-04-23 07:30 | 49.44336 | 127.13088 | 36040 ft | 463 kts | 190° |
| 2026-04-23 07:30 | 49.37971 | 127.11539 | 36039 ft | 464 kts | 190° |
| 2026-04-23 07:31 | 49.31584 | 127.09986 | 36042 ft | 465 kts | 190° |
| 2026-04-23 07:31 | 49.25189 | 127.08436 | 36045 ft | 465 kts | 190° |
| 2026-04-23 07:32 | 49.18784 | 127.06888 | 36042 ft | 466 kts | 190° |
| 2026-04-23 07:32 | 49.12404 | 127.05349 | 36044 ft | 467 kts | 190° |
| 2026-04-23 07:33 | 49.05974 | 127.03803 | 36042 ft | 467 kts | 190° |
| 2026-04-23 07:33 | 48.99550 | 127.02265 | 36049 ft | 466 kts | 190° |
| 2026-04-23 07:34 | 48.93105 | 127.00725 | 36136 ft | 467 kts | 190° |
| 2026-04-23 07:34 | 48.86642 | 126.99180 | 36141 ft | 472 kts | 191° |
| 2026-04-23 07:35 | 48.80174 | 126.97640 | 36144 ft | 475 kts | 191° |
| 2026-04-23 07:35 | 48.73610 | 126.96084 | 36135 ft | 477 kts | 191° |
| 2026-04-23 07:36 | 48.67041 | 126.94530 | 36135 ft | 478 kts | 191° |
| 2026-04-23 07:36 | 48.60464 | 126.92978 | 36129 ft | 477 kts | 191° |
| 2026-04-23 07:37 | 48.53908 | 126.91434 | 36127 ft | 476 kts | 191° |
| 2026-04-23 07:37 | 48.47413 | 126.89910 | 36132 ft | 474 kts | 191° |
| 2026-04-23 07:38 | 48.40904 | 126.88387 | 36130 ft | 472 kts | 191° |
| 2026-04-23 07:38 | 48.34419 | 126.86873 | 36132 ft | 471 kts | 191° |
| 2026-04-23 07:39 | 48.27921 | 126.85358 | 36134 ft | 471 kts | 192° |
| 2026-04-23 07:39 | 48.21444 | 126.83851 | 36130 ft | 471 kts | 192° |
| 2026-04-23 07:40 | 48.14954 | 126.82346 | 36130 ft | 472 kts | 192° |
| 2026-04-23 07:40 | 48.08489 | 126.80852 | 36131 ft | 474 kts | 192° |
| 2026-04-23 07:41 | 48.01948 | 126.79341 | 36137 ft | 475 kts | 192° |
| 2026-04-23 07:41 | 47.95396 | 126.77833 | 36132 ft | 477 kts | 192° |
| 2026-04-23 07:42 | 47.88807 | 126.76323 | 36128 ft | 479 kts | 192° |
| 2026-04-23 07:42 | 47.82209 | 126.74814 | 36132 ft | 480 kts | 192° |
| 2026-04-23 07:43 | 47.75644 | 126.73316 | 36127 ft | 481 kts | 192° |
| 2026-04-23 07:43 | 47.69019 | 126.71807 | 36125 ft | 481 kts | 192° |
| 2026-04-23 07:44 | 47.62391 | 126.70302 | 36122 ft | 481 kts | 193° |
| 2026-04-23 07:44 | 47.55810 | 126.68811 | 36124 ft | 480 kts | 193° |
| 2026-04-23 07:45 | 47.49205 | 126.67319 | 36123 ft | 480 kts | 193° |
| 2026-04-23 07:45 | 47.42606 | 126.65832 | 36123 ft | 479 kts | 193° |
| 2026-04-23 07:46 | 47.36008 | 126.64348 | 36124 ft | 479 kts | 193° |
| 2026-04-23 07:46 | 47.29448 | 126.62878 | 36118 ft | 478 kts | 193° |
| 2026-04-23 07:47 | 47.22862 | 126.61404 | 36118 ft | 478 kts | 193° |
| 2026-04-23 07:47 | 47.16279 | 126.59935 | 36121 ft | 477 kts | 193° |
| 2026-04-23 07:48 | 47.09717 | 126.58474 | 36112 ft | 477 kts | 193° |
| 2026-04-23 07:48 | 47.03146 | 126.57014 | 36118 ft | 477 kts | 193° |
| 2026-04-23 07:49 | 46.96621 | 126.55568 | 36108 ft | 477 kts | 193° |
| 2026-04-23 07:49 | 46.90047 | 126.54115 | 36112 ft | 476 kts | 193° |
| 2026-04-23 07:50 | 46.83493 | 126.52670 | 36105 ft | 477 kts | 194° |
| 2026-04-23 07:50 | 46.76928 | 126.51226 | 36107 ft | 476 kts | 194° |
| 2026-04-23 07:51 | 46.70360 | 126.49784 | 36102 ft | 477 kts | 194° |
| 2026-04-23 07:51 | 46.63828 | 126.48352 | 36106 ft | 477 kts | 194° |
| 2026-04-23 07:52 | 46.57255 | 126.46913 | 36102 ft | 477 kts | 194° |
| 2026-04-23 07:52 | 46.50686 | 126.45480 | 36102 ft | 477 kts | 194° |
| 2026-04-23 07:53 | 46.44162 | 126.44043 | 36097 ft | 477 kts | 194° |
| 2026-04-23 07:53 | 46.37601 | 126.42573 | 36094 ft | 477 kts | 194° |
| 2026-04-23 07:54 | 46.31042 | 126.41103 | 36090 ft | 477 kts | 194° |
| 2026-04-23 07:54 | 46.24473 | 126.39634 | 36087 ft | 477 kts | 194° |
| 2026-04-23 07:55 | 46.17953 | 126.38184 | 36089 ft | 477 kts | 194° |
| 2026-04-23 07:55 | 46.11384 | 126.36724 | 36077 ft | 477 kts | 194° |
| 2026-04-23 07:56 | 46.04817 | 126.35270 | 36079 ft | 477 kts | 194° |
| 2026-04-23 07:56 | 45.98244 | 126.33818 | 36078 ft | 477 kts | 194° |
| 2026-04-23 07:57 | 45.91714 | 126.32376 | 36069 ft | 477 kts | 194° |
| 2026-04-23 07:57 | 45.85134 | 126.30928 | 36072 ft | 477 kts | 194° |
| 2026-04-23 07:58 | 45.78564 | 126.29482 | 36063 ft | 477 kts | 194° |
| 2026-04-23 07:58 | 45.71998 | 126.28037 | 36067 ft | 477 kts | 194° |
| 2026-04-23 07:59 | 45.65516 | 126.26258 | 36043 ft | 466 kts | 208° |
| 2026-04-23 07:59 | 45.62707 | 126.24130 | 36077 ft | 450 kts | 223° |
| 2026-04-23 07:59 | 45.60374 | 126.21247 | 36061 ft | 437 kts | 235° |
| 2026-04-23 08:00 | 45.56913 | 126.14336 | 36066 ft | 429 kts | 243° |
| 2026-04-23 08:00 | 45.53574 | 126.07253 | 36061 ft | 430 kts | 243° |
| 2026-04-23 08:01 | 45.50199 | 126.00202 | 36055 ft | 431 kts | 242° |
| 2026-04-23 08:01 | 45.46811 | 125.93211 | 36054 ft | 431 kts | 242° |
| 2026-04-23 08:02 | 45.43386 | 125.86185 | 36041 ft | 431 kts | 242° |
| 2026-04-23 08:02 | 45.40538 | 125.80355 | 36033 ft | 431 kts | 242° |
| 2026-04-23 08:03 | 45.37107 | 125.73345 | 36034 ft | 430 kts | 242° |
| 2026-04-23 08:03 | 45.33679 | 125.66355 | 36029 ft | 430 kts | 242° |
| 2026-04-23 08:04 | 45.30277 | 125.59436 | 36027 ft | 429 kts | 242° |
| 2026-04-23 08:04 | 45.26855 | 125.52495 | 36026 ft | 428 kts | 242° |
| 2026-04-23 08:05 | 45.23434 | 125.45569 | 36015 ft | 428 kts | 242° |
| 2026-04-23 08:05 | 45.20017 | 125.38668 | 36016 ft | 427 kts | 241° |
| 2026-04-23 08:06 | 45.16605 | 125.31786 | 36010 ft | 426 kts | 241° |
| 2026-04-23 08:06 | 45.13210 | 125.24954 | 36007 ft | 426 kts | 241° |
| 2026-04-23 08:07 | 45.09788 | 125.18093 | 36005 ft | 425 kts | 241° |
| 2026-04-23 08:07 | 45.06404 | 125.11218 | 35998 ft | 425 kts | 242° |
| 2026-04-23 08:08 | 45.03057 | 125.04382 | 35997 ft | 425 kts | 242° |
| 2026-04-23 08:08 | 44.99680 | 124.97503 | 36001 ft | 425 kts | 242° |
| 2026-04-23 08:09 | 44.96292 | 124.90623 | 35997 ft | 426 kts | 241° |
| 2026-04-23 08:09 | 44.92891 | 124.83733 | 35995 ft | 427 kts | 241° |
| 2026-04-23 08:10 | 44.89490 | 124.76914 | 35998 ft | 428 kts | 240° |
| 2026-04-23 08:10 | 44.84255 | 124.66685 | 35983 ft | 429 kts | 240° |
| 2026-04-23 08:11 | 44.80755 | 124.59854 | 35981 ft | 429 kts | 240° |
| 2026-04-23 08:11 | 44.77264 | 124.53037 | 35981 ft | 429 kts | 240° |
| 2026-04-23 08:12 | 44.73788 | 124.46260 | 35975 ft | 429 kts | 240° |
| 2026-04-23 08:12 | 44.70291 | 124.39462 | 35972 ft | 429 kts | 240° |
| 2026-04-23 08:13 | 44.66786 | 124.32658 | 35969 ft | 428 kts | 240° |
| 2026-04-23 08:13 | 44.63286 | 124.25881 | 35968 ft | 428 kts | 240° |
| 2026-04-23 08:14 | 44.59810 | 124.19159 | 35965 ft | 428 kts | 240° |
| 2026-04-23 08:14 | 44.56302 | 124.12401 | 35958 ft | 428 kts | 240° |
| 2026-04-23 08:15 | 44.52788 | 124.05656 | 35960 ft | 428 kts | 240° |
| 2026-04-23 08:15 | 44.49265 | 123.98908 | 35954 ft | 428 kts | 240° |
| 2026-04-23 08:16 | 44.45743 | 123.92172 | 35949 ft | 428 kts | 240° |
| 2026-04-23 08:16 | 44.42260 | 123.85460 | 35954 ft | 428 kts | 240° |
| 2026-04-23 08:17 | 44.38781 | 123.78698 | 35952 ft | 428 kts | 240° |
| 2026-04-23 08:17 | 44.35299 | 123.71938 | 35944 ft | 428 kts | 240° |
| 2026-04-23 08:18 | 44.31806 | 123.65176 | 35943 ft | 429 kts | 240° |
| 2026-04-23 08:18 | 44.28309 | 123.58425 | 35940 ft | 429 kts | 240° |
| 2026-04-23 08:19 | 44.24804 | 123.51676 | 35938 ft | 429 kts | 240° |
| 2026-04-23 08:19 | 44.21313 | 123.44970 | 35935 ft | 430 kts | 240° |
| 2026-04-23 08:20 | 44.17798 | 123.38235 | 35933 ft | 430 kts | 240° |
| 2026-04-23 08:20 | 44.14276 | 123.31500 | 35928 ft | 430 kts | 240° |
| 2026-04-23 08:21 | 44.10747 | 123.24766 | 35925 ft | 430 kts | 239° |
| 2026-04-23 08:21 | 44.07240 | 123.18090 | 35919 ft | 430 kts | 239° |
| 2026-04-23 08:22 | 44.03707 | 123.11377 | 35920 ft | 430 kts | 239° |
| 2026-04-23 08:22 | 44.00171 | 123.04672 | 35919 ft | 429 kts | 239° |
| 2026-04-23 08:23 | 43.96633 | 122.97973 | 35916 ft | 430 kts | 239° |
| 2026-04-23 08:23 | 43.93091 | 122.91280 | 35913 ft | 429 kts | 240° |
| 2026-04-23 08:24 | 43.89639 | 122.84591 | 35909 ft | 429 kts | 240° |
| 2026-04-23 08:24 | 43.86190 | 122.77852 | 35905 ft | 429 kts | 240° |
| 2026-04-23 08:25 | 43.82724 | 122.71107 | 35902 ft | 429 kts | 240° |
| 2026-04-23 08:25 | 43.79253 | 122.64382 | 35897 ft | 429 kts | 240° |
| 2026-04-23 08:26 | 43.75777 | 122.57663 | 35899 ft | 429 kts | 240° |
| 2026-04-23 08:26 | 43.72292 | 122.50944 | 35892 ft | 429 kts | 240° |
| 2026-04-23 08:27 | 43.68805 | 122.44236 | 35890 ft | 430 kts | 239° |
| 2026-04-23 08:27 | 43.65303 | 122.37513 | 35887 ft | 430 kts | 239° |
| 2026-04-23 08:28 | 43.61822 | 122.30841 | 35885 ft | 431 kts | 239° |
| 2026-04-23 08:28 | 43.58317 | 122.24135 | 35877 ft | 431 kts | 239° |
| 2026-04-23 08:29 | 43.54798 | 122.17418 | 35876 ft | 431 kts | 239° |
| 2026-04-23 08:29 | 43.51307 | 122.10687 | 35877 ft | 431 kts | 239° |
| 2026-04-23 08:30 | 43.47822 | 122.03949 | 35871 ft | 432 kts | 239° |
| 2026-04-23 08:30 | 43.44341 | 121.97237 | 35871 ft | 432 kts | 239° |
| 2026-04-23 08:31 | 43.40844 | 121.90509 | 35866 ft | 432 kts | 239° |
| 2026-04-23 08:31 | 43.37360 | 121.83824 | 35864 ft | 432 kts | 239° |
| 2026-04-23 08:32 | 43.33852 | 121.77106 | 35861 ft | 432 kts | 239° |
| 2026-04-23 08:32 | 43.30343 | 121.70404 | 35859 ft | 432 kts | 239° |
| 2026-04-23 08:33 | 43.26823 | 121.63699 | 35850 ft | 432 kts | 239° |
| 2026-04-23 08:33 | 43.23295 | 121.56994 | 35848 ft | 433 kts | 239° |
| 2026-04-23 08:34 | 43.19784 | 121.50335 | 35845 ft | 433 kts | 239° |
| 2026-04-23 08:34 | 43.16247 | 121.43638 | 35847 ft | 433 kts | 239° |
| 2026-04-23 08:35 | 43.12703 | 121.36945 | 35844 ft | 433 kts | 238° |
| 2026-04-23 08:35 | 43.09181 | 121.30306 | 35847 ft | 433 kts | 238° |
| 2026-04-23 08:36 | 43.05606 | 121.23590 | 35838 ft | 434 kts | 238° |
| 2026-04-23 08:36 | 43.02049 | 121.16919 | 35834 ft | 434 kts | 238° |
| 2026-04-23 08:37 | 42.98510 | 121.10296 | 35835 ft | 434 kts | 238° |
| 2026-04-23 08:37 | 42.94938 | 121.03622 | 35832 ft | 434 kts | 238° |
| 2026-04-23 08:38 | 42.91368 | 120.96971 | 35833 ft | 435 kts | 238° |
| 2026-04-23 08:38 | 42.87786 | 120.90312 | 35827 ft | 435 kts | 238° |
| 2026-04-23 08:39 | 42.84199 | 120.83656 | 35825 ft | 436 kts | 238° |
| 2026-04-23 08:39 | 42.80624 | 120.77042 | 35821 ft | 436 kts | 238° |
| 2026-04-23 08:40 | 42.76994 | 120.70340 | 35817 ft | 437 kts | 237° |
| 2026-04-23 08:40 | 42.73383 | 120.63689 | 35817 ft | 437 kts | 237° |
| 2026-04-23 08:41 | 42.69783 | 120.57071 | 35819 ft | 438 kts | 237° |
| 2026-04-23 08:41 | 42.66145 | 120.50397 | 35810 ft | 438 kts | 237° |
| 2026-04-23 08:42 | 42.62514 | 120.43751 | 35816 ft | 438 kts | 237° |
| 2026-04-23 08:42 | 42.58896 | 120.37144 | 35815 ft | 438 kts | 237° |
| 2026-04-23 08:43 | 42.55248 | 120.30496 | 35805 ft | 438 kts | 237° |
| 2026-04-23 08:43 | 42.51599 | 120.23864 | 35803 ft | 438 kts | 237° |
| 2026-04-23 08:44 | 42.47955 | 120.17255 | 35820 ft | 438 kts | 237° |
| 2026-04-23 08:44 | 42.44299 | 120.10637 | 35804 ft | 438 kts | 237° |
| 2026-04-23 08:45 | 42.41257 | 120.05144 | 35808 ft | 438 kts | 237° |
| 2026-04-23 08:45 | 42.37007 | 119.97482 | 35809 ft | 438 kts | 237° |
| 2026-04-23 08:46 | 42.33963 | 119.92005 | 35803 ft | 438 kts | 236° |
| 2026-04-23 08:46 | 42.30292 | 119.85417 | 35807 ft | 438 kts | 236° |
| 2026-04-23 08:47 | 42.26617 | 119.78837 | 35807 ft | 437 kts | 236° |
| 2026-04-23 08:47 | 42.22970 | 119.72317 | 35809 ft | 438 kts | 236° |
| 2026-04-23 08:48 | 42.19296 | 119.65767 | 35808 ft | 438 kts | 236° |
| 2026-04-23 08:48 | 42.15616 | 119.59222 | 35808 ft | 438 kts | 236° |
| 2026-04-23 08:49 | 42.11921 | 119.52660 | 35806 ft | 439 kts | 236° |
| 2026-04-23 08:49 | 42.08227 | 119.46115 | 35807 ft | 439 kts | 236° |
| 2026-04-23 08:50 | 42.04546 | 119.39607 | 35813 ft | 440 kts | 236° |
| 2026-04-23 08:50 | 42.00828 | 119.33050 | 35813 ft | 441 kts | 236° |
| 2026-04-23 08:51 | 41.97104 | 119.26493 | 35819 ft | 441 kts | 236° |
| 2026-04-23 08:51 | 41.93368 | 119.19931 | 35822 ft | 442 kts | 236° |
| 2026-04-23 08:52 | 41.89622 | 119.13369 | 35827 ft | 443 kts | 236° |
| 2026-04-23 08:52 | 41.85863 | 119.06796 | 35830 ft | 443 kts | 236° |
| 2026-04-23 08:53 | 41.82129 | 119.00279 | 35839 ft | 444 kts | 235° |
| 2026-04-23 08:53 | 41.78358 | 118.93711 | 35755 ft | 445 kts | 235° |
| 2026-04-23 08:54 | 41.76459 | 118.90410 | 35477 ft | 447 kts | 235° |
| 2026-04-23 08:54 | 41.74563 | 118.87118 | 35230 ft | 445 kts | 236° |
| 2026-04-23 08:54 | 41.72671 | 118.83836 | 34977 ft | 445 kts | 236° |
| 2026-04-23 08:54 | 41.70775 | 118.80550 | 34746 ft | 447 kts | 236° |
| 2026-04-23 08:55 | 41.68868 | 118.77248 | 34507 ft | 449 kts | 236° |
| 2026-04-23 08:55 | 41.66958 | 118.73944 | 34269 ft | 450 kts | 236° |
| 2026-04-23 08:55 | 41.65055 | 118.70656 | 34036 ft | 452 kts | 236° |
| 2026-04-23 08:55 | 41.63129 | 118.67331 | 33802 ft | 452 kts | 236° |
| 2026-04-23 08:56 | 41.61190 | 118.63990 | 33532 ft | 453 kts | 236° |
| 2026-04-23 08:56 | 41.59259 | 118.60666 | 33254 ft | 453 kts | 236° |
| 2026-04-23 08:56 | 41.57328 | 118.57341 | 32986 ft | 453 kts | 236° |
| 2026-04-23 08:56 | 41.55393 | 118.54012 | 32723 ft | 453 kts | 236° |
| 2026-04-23 08:57 | 41.53461 | 118.50690 | 32475 ft | 453 kts | 235° |
| 2026-04-23 08:57 | 41.51528 | 118.47376 | 32197 ft | 452 kts | 235° |
| 2026-04-23 08:57 | 41.49612 | 118.44059 | 31930 ft | 450 kts | 238° |
| 2026-04-23 08:57 | 41.47914 | 118.40631 | 31685 ft | 446 kts | 241° |
| 2026-04-23 08:58 | 41.46291 | 118.37103 | 31414 ft | 443 kts | 242° |
| 2026-04-23 08:58 | 41.44711 | 118.33582 | 31164 ft | 440 kts | 242° |
| 2026-04-23 08:58 | 41.43157 | 118.30116 | 30667 ft | 431 kts | 242° |
| 2026-04-23 08:58 | 41.41626 | 118.26727 | 30187 ft | 419 kts | 242° |
| 2026-04-23 08:59 | 41.40151 | 118.23486 | 29751 ft | 408 kts | 242° |
| 2026-04-23 08:59 | 41.38694 | 118.20308 | 29254 ft | 397 kts | 242° |
| 2026-04-23 08:59 | 41.37269 | 118.17209 | 28766 ft | 386 kts | 242° |
| 2026-04-23 08:59 | 41.35880 | 118.14195 | 28283 ft | 377 kts | 242° |
| 2026-04-23 09:00 | 41.34516 | 118.11243 | 27820 ft | 369 kts | 241° |
| 2026-04-23 09:00 | 41.33184 | 118.08362 | 27367 ft | 363 kts | 241° |
| 2026-04-23 09:00 | 41.31864 | 118.05508 | 26928 ft | 362 kts | 241° |
| 2026-04-23 09:00 | 41.30546 | 118.02656 | 26502 ft | 364 kts | 241° |
| 2026-04-23 09:01 | 41.29214 | 117.99780 | 26063 ft | 363 kts | 241° |
| 2026-04-23 09:01 | 41.27911 | 117.96973 | 25651 ft | 360 kts | 241° |
| 2026-04-23 09:01 | 41.26600 | 117.94153 | 25235 ft | 357 kts | 241° |
| 2026-04-23 09:01 | 41.25301 | 117.91360 | 24825 ft | 354 kts | 241° |
| 2026-04-23 09:02 | 41.24009 | 117.88587 | 24415 ft | 351 kts | 240° |
| 2026-04-23 09:02 | 41.22729 | 117.85841 | 24009 ft | 348 kts | 241° |
| 2026-04-23 09:02 | 41.21456 | 117.83107 | 23612 ft | 346 kts | 240° |
| 2026-04-23 09:02 | 41.20191 | 117.80395 | 23191 ft | 344 kts | 240° |
| 2026-04-23 09:03 | 41.18934 | 117.77703 | 22719 ft | 342 kts | 240° |
| 2026-04-23 09:03 | 41.17699 | 117.75062 | 22276 ft | 339 kts | 240° |
| 2026-04-23 09:03 | 41.16454 | 117.72403 | 21829 ft | 339 kts | 240° |
| 2026-04-23 09:03 | 41.15205 | 117.69735 | 21390 ft | 342 kts | 240° |
| 2026-04-23 09:04 | 41.13947 | 117.67050 | 20963 ft | 343 kts | 240° |
| 2026-04-23 09:04 | 41.12691 | 117.64370 | 20532 ft | 342 kts | 240° |
| 2026-04-23 09:04 | 41.11430 | 117.61684 | 20097 ft | 341 kts | 241° |
| 2026-04-23 09:04 | 41.10177 | 117.59016 | 19694 ft | 340 kts | 241° |
| 2026-04-23 09:05 | 41.08932 | 117.56364 | 19350 ft | 337 kts | 241° |
| 2026-04-23 09:05 | 41.07702 | 117.53751 | 19131 ft | 330 kts | 241° |
| 2026-04-23 09:05 | 41.06491 | 117.51182 | 18908 ft | 324 kts | 242° |
| 2026-04-23 09:05 | 41.05299 | 117.48662 | 18685 ft | 319 kts | 241° |
| 2026-04-23 09:06 | 41.04057 | 117.46242 | 18365 ft | 320 kts | 232° |
| 2026-04-23 09:06 | 41.02395 | 117.44254 | 18042 ft | 324 kts | 219° |
| 2026-04-23 09:06 | 41.00407 | 117.42824 | 17688 ft | 327 kts | 206° |
| 2026-04-23 09:06 | 40.98287 | 117.41730 | 17349 ft | 326 kts | 204° |
| 2026-04-23 09:07 | 40.96192 | 117.40700 | 17025 ft | 325 kts | 204° |
| 2026-04-23 09:07 | 40.94078 | 117.39662 | 16734 ft | 322 kts | 204° |
| 2026-04-23 09:07 | 40.91993 | 117.38629 | 16448 ft | 319 kts | 205° |
| 2026-04-23 09:07 | 40.89922 | 117.37593 | 16163 ft | 316 kts | 205° |
| 2026-04-23 09:08 | 40.87868 | 117.36559 | 15865 ft | 314 kts | 205° |
| 2026-04-23 09:08 | 40.85833 | 117.35529 | 15598 ft | 312 kts | 205° |
| 2026-04-23 09:08 | 40.83814 | 117.34503 | 15312 ft | 310 kts | 205° |
| 2026-04-23 09:08 | 40.81805 | 117.33483 | 15037 ft | 308 kts | 205° |
| 2026-04-23 09:09 | 40.79807 | 117.32468 | 14777 ft | 309 kts | 205° |
| 2026-04-23 09:09 | 40.77794 | 117.31442 | 14518 ft | 310 kts | 205° |
| 2026-04-23 09:09 | 40.75794 | 117.30431 | 14268 ft | 312 kts | 204° |
| 2026-04-23 09:09 | 40.73760 | 117.29405 | 13999 ft | 313 kts | 205° |
| 2026-04-23 09:10 | 40.71927 | 117.27957 | 13719 ft | 303 kts | 228° |
| 2026-04-23 09:10 | 40.69935 | 117.23272 | 13288 ft | 299 kts | 251° |
| 2026-04-23 09:10 | 40.69223 | 117.20677 | 12929 ft | 301 kts | 252° |
| 2026-04-23 09:11 | 40.68531 | 117.18106 | 12546 ft | 293 kts | 252° |
| 2026-04-23 09:11 | 40.67864 | 117.15636 | 12172 ft | 285 kts | 252° |
| 2026-04-23 09:11 | 40.67203 | 117.13212 | 11807 ft | 277 kts | 252° |
| 2026-04-23 09:11 | 40.66553 | 117.10850 | 11442 ft | 271 kts | 252° |
| 2026-04-23 09:12 | 40.65916 | 117.08545 | 11157 ft | 263 kts | 252° |
| 2026-04-23 09:12 | 40.65292 | 117.06295 | 10867 ft | 259 kts | 252° |
| 2026-04-23 09:12 | 40.64673 | 117.04069 | 10594 ft | 257 kts | 251° |
| 2026-04-23 09:12 | 40.64060 | 117.01863 | 10347 ft | 258 kts | 251° |
| 2026-04-23 09:13 | 40.63436 | 116.99620 | 10097 ft | 263 kts | 251° |
| 2026-04-23 09:13 | 40.62809 | 116.97368 | 9847 ft | 265 kts | 251° |
| 2026-04-23 09:13 | 40.62174 | 116.95100 | 9591 ft | 262 kts | 251° |
| 2026-04-23 09:13 | 40.61546 | 116.92869 | 9347 ft | 258 kts | 251° |
| 2026-04-23 09:14 | 40.60924 | 116.90659 | 9089 ft | 257 kts | 251° |
| 2026-04-23 09:14 | 40.60159 | 116.88549 | 8814 ft | 258 kts | 235° |
| 2026-04-23 09:14 | 40.58896 | 116.86864 | 8587 ft | 259 kts | 224° |
| 2026-04-23 09:14 | 40.57525 | 116.85327 | 8315 ft | 257 kts | 223° |
| 2026-04-23 09:15 | 40.56158 | 116.83819 | 8072 ft | 256 kts | 223° |
| 2026-04-23 09:15 | 40.54800 | 116.82315 | 7827 ft | 254 kts | 223° |
| 2026-04-23 09:15 | 40.53459 | 116.80820 | 7585 ft | 252 kts | 223° |
| 2026-04-23 09:15 | 40.52123 | 116.79327 | 7336 ft | 250 kts | 223° |
| 2026-04-23 09:16 | 40.50803 | 116.77845 | 7085 ft | 249 kts | 223° |
| 2026-04-23 09:16 | 40.49487 | 116.76366 | 6890 ft | 250 kts | 223° |
| 2026-04-23 09:16 | 40.48162 | 116.74880 | 6813 ft | 250 kts | 223° |
| 2026-04-23 09:16 | 40.46871 | 116.73431 | 6778 ft | 243 kts | 223° |
| 2026-04-23 09:17 | 40.45610 | 116.72016 | 6773 ft | 236 kts | 223° |
| 2026-04-23 09:17 | 40.44368 | 116.70622 | 6781 ft | 235 kts | 223° |
| 2026-04-23 09:17 | 40.43100 | 116.69201 | 6796 ft | 243 kts | 221° |
| 2026-04-23 09:17 | 40.41581 | 116.68193 | 6794 ft | 252 kts | 196° |
| 2026-04-23 09:18 | 40.39792 | 116.68091 | 6790 ft | 261 kts | 178° |
| 2026-04-23 09:18 | 40.37987 | 116.68361 | 6787 ft | 261 kts | 176° |
| 2026-04-23 09:18 | 40.36179 | 116.68672 | 6777 ft | 261 kts | 176° |
| 2026-04-23 09:18 | 40.34402 | 116.68978 | 6783 ft | 260 kts | 176° |
| 2026-04-23 09:19 | 40.32714 | 116.69263 | 6780 ft | 260 kts | 176° |
| 2026-04-23 09:19 | 40.30909 | 116.69560 | 6777 ft | 259 kts | 176° |
| 2026-04-23 09:19 | 40.29126 | 116.69851 | 6785 ft | 258 kts | 176° |
| 2026-04-23 09:19 | 40.27348 | 116.70137 | 6789 ft | 257 kts | 176° |
| 2026-04-23 09:20 | 40.25569 | 116.70421 | 6786 ft | 257 kts | 176° |
| 2026-04-23 09:20 | 40.23790 | 116.70702 | 6790 ft | 257 kts | 176° |
| 2026-04-23 09:20 | 40.22015 | 116.70981 | 6793 ft | 257 kts | 176° |
| 2026-04-23 09:20 | 40.20230 | 116.71261 | 6792 ft | 258 kts | 176° |
| 2026-04-23 09:21 | 40.18444 | 116.71542 | 6800 ft | 259 kts | 176° |
| 2026-04-23 09:21 | 40.16673 | 116.71819 | 6792 ft | 259 kts | 176° |
| 2026-04-23 09:21 | 40.14878 | 116.72098 | 6788 ft | 260 kts | 176° |
| 2026-04-23 09:21 | 40.13081 | 116.72378 | 6796 ft | 260 kts | 176° |
| 2026-04-23 09:22 | 40.11285 | 116.72657 | 6799 ft | 260 kts | 176° |
| 2026-04-23 09:22 | 40.09484 | 116.72937 | 6794 ft | 261 kts | 176° |
| 2026-04-23 09:22 | 40.07683 | 116.73217 | 6791 ft | 260 kts | 176° |
| 2026-04-23 09:22 | 40.05885 | 116.73497 | 6797 ft | 260 kts | 176° |
| 2026-04-23 09:23 | 40.04090 | 116.73775 | 6794 ft | 260 kts | 176° |
| 2026-04-23 09:23 | 40.02290 | 116.74055 | 6796 ft | 260 kts | 176° |
| 2026-04-23 09:23 | 40.00515 | 116.74330 | 6792 ft | 260 kts | 176° |
| 2026-04-23 09:23 | 39.98718 | 116.74609 | 6791 ft | 260 kts | 176° |
| 2026-04-23 09:24 | 39.96914 | 116.74890 | 6755 ft | 261 kts | 176° |
| 2026-04-23 09:24 | 39.95083 | 116.75174 | 6437 ft | 266 kts | 176° |
| 2026-04-23 09:24 | 39.93246 | 116.75460 | 6153 ft | 263 kts | 176° |
| 2026-04-23 09:24 | 39.91442 | 116.75742 | 5783 ft | 259 kts | 176° |
| 2026-04-23 09:25 | 39.89664 | 116.76019 | 5395 ft | 255 kts | 176° |
| 2026-04-23 09:25 | 39.87919 | 116.76137 | 5011 ft | 248 kts | 194° |
| 2026-04-23 09:25 | 39.86439 | 116.75138 | 4651 ft | 239 kts | 225° |
| 2026-04-23 09:25 | 39.85474 | 116.73412 | 4410 ft | 236 kts | 243° |
| 2026-04-23 09:26 | 39.84911 | 116.71397 | 4159 ft | 238 kts | 251° |
| 2026-04-23 09:26 | 39.84468 | 116.69299 | 3912 ft | 240 kts | 252° |
| 2026-04-23 09:26 | 39.84045 | 116.67223 | 3664 ft | 242 kts | 252° |
| 2026-04-23 09:26 | 39.83603 | 116.65072 | 3438 ft | 249 kts | 252° |
| 2026-04-23 09:27 | 39.83152 | 116.62895 | 3189 ft | 248 kts | 251° |
| 2026-04-23 09:27 | 39.82698 | 116.60739 | 2931 ft | 246 kts | 251° |
| 2026-04-23 09:27 | 39.82245 | 116.58603 | 2696 ft | 244 kts | 251° |
| 2026-04-23 09:27 | 39.81790 | 116.56473 | 2457 ft | 244 kts | 251° |
| 2026-04-23 09:28 | 39.81344 | 116.54394 | 2258 ft | 232 kts | 250° |
| 2026-04-23 09:28 | 39.80928 | 116.52454 | 2130 ft | 214 kts | 250° |
| 2026-04-23 09:28 | 39.80542 | 116.50664 | 2036 ft | 195 kts | 250° |
| 2026-04-23 09:28 | 39.80235 | 116.49021 | 1978 ft | 179 kts | 257° |
| 2026-04-23 09:29 | 39.80134 | 116.47984 | 1994 ft | 170 kts | 258° |
| 2026-04-23 09:29 | 39.79999 | 116.46462 | 1969 ft | 168 kts | 258° |
| 2026-04-23 09:29 | 39.79860 | 116.44943 | 2004 ft | 169 kts | 258° |
| 2026-04-23 09:29 | 39.79675 | 116.42925 | 1982 ft | 169 kts | 257° |
| 2026-04-23 09:30 | 39.79579 | 116.41901 | 1992 ft | 167 kts | 257° |
| 2026-04-23 09:30 | 39.79140 | 116.40555 | 1990 ft | 159 kts | 230° |
| 2026-04-23 09:30 | 39.78375 | 116.39502 | 1996 ft | 163 kts | 214° |
| 2026-04-23 09:30 | 39.77361 | 116.38952 | 1978 ft | 156 kts | 180° |
| 2026-04-23 09:31 | 39.76315 | 116.39009 | 1982 ft | 146 kts | 183° |
| 2026-04-23 09:31 | 39.75314 | 116.38973 | 1993 ft | 143 kts | 183° |
| 2026-04-23 09:31 | 39.74316 | 116.38990 | 1998 ft | 143 kts | 181° |
| 2026-04-23 09:31 | 39.73335 | 116.39067 | 2003 ft | 143 kts | 179° |
| 2026-04-23 09:32 | 39.72335 | 116.39185 | 1998 ft | 144 kts | 176° |
| 2026-04-23 09:32 | 39.71364 | 116.39319 | 2025 ft | 139 kts | 176° |
| 2026-04-23 09:32 | 39.70412 | 116.39461 | 1993 ft | 136 kts | 177° |
| 2026-04-23 09:32 | 39.69483 | 116.39606 | 1992 ft | 133 kts | 177° |
| 2026-04-23 09:33 | 39.68561 | 116.39750 | 1988 ft | 133 kts | 176° |
| 2026-04-23 09:33 | 39.67641 | 116.39894 | 1989 ft | 133 kts | 175° |
| 2026-04-23 09:33 | 39.66726 | 116.40038 | 1986 ft | 133 kts | 175° |
| 2026-04-23 09:33 | 39.65809 | 116.40184 | 1983 ft | 133 kts | 176° |
| 2026-04-23 09:34 | 39.64896 | 116.40331 | 1993 ft | 132 kts | 177° |
| 2026-04-23 09:34 | 39.63987 | 116.40473 | 1990 ft | 133 kts | 177° |
| 2026-04-23 09:34 | 39.63064 | 116.40619 | 1995 ft | 134 kts | 175° |
| 2026-04-23 09:34 | 39.62127 | 116.40768 | 1997 ft | 137 kts | 175° |
| 2026-04-23 09:35 | 39.61176 | 116.40917 | 1998 ft | 137 kts | 176° |
| 2026-04-23 09:35 | 39.60228 | 116.41064 | 1996 ft | 136 kts | 176° |
| 2026-04-23 09:35 | 39.59287 | 116.41217 | 1888 ft | 135 kts | 176° |
| 2026-04-23 09:35 | 39.58352 | 116.41359 | 1715 ft | 136 kts | 176° |
| 2026-04-23 09:36 | 39.57432 | 116.41507 | 1541 ft | 134 kts | 176° |
| 2026-04-23 09:36 | 39.56491 | 116.41655 | 1354 ft | 138 kts | 176° |
| 2026-04-23 09:36 | 39.55521 | 116.41808 | 1185 ft | 143 kts | 175° |
| 2026-04-23 09:36 | 39.54518 | 116.41986 | 970 ft | 145 kts | 175° |
| 2026-04-23 09:37 | 39.53533 | 116.42196 | 783 ft | 142 kts | 176° |
| 2026-04-23 09:37 | 39.52555 | 116.42321 | 597 ft | 140 kts | 175° |
| 2026-04-23 09:37 | 39.51607 | 116.42442 | 371 ft | 137 kts | 174° |
| 2026-04-23 09:37 | 39.50662 | 116.42603 | 229 ft | 134 kts | 176° |
| 2026-04-23 09:38 | 39.49739 | 116.42729 | 114 ft | 131 kts | 175° |
| 2026-04-23 09:38 | 39.48840 | 116.42863 | 96 ft | 121 kts | 173° |
| 2026-04-23 09:38 | 39.48240 | 116.42958 | 101 ft | 47 kts | 175° |
| 2026-04-23 09:38 | 39.48070 | 116.42908 | 99 ft | 14 kts | 199° |
| 2026-04-23 09:39 | 39.48002 | 116.42819 | 91 ft | 17 kts | 278° |
| 2026-04-23 09:39 | 39.48038 | 116.42779 | 89 ft | 6 kts | 345° |
| 2026-04-23 09:39 | 39.48079 | 116.42769 | 88 ft | 6 kts | 353° |
| 2026-04-23 09:39 | 39.48119 | 116.42763 | 89 ft | 6 kts | 353° |
| 2026-04-23 09:40 | 39.48159 | 116.42758 | 90 ft | 6 kts | 354° |
| 2026-04-23 09:40 | 39.48199 | 116.42752 | 91 ft | 6 kts | 353° |
| 2026-04-23 09:40 | 39.48237 | 116.42746 | 92 ft | 6 kts | 353° |
| 2026-04-23 09:40 | 39.48278 | 116.42739 | 90 ft | 6 kts | 353° |
| 2026-04-23 09:41 | 39.48324 | 116.42732 | 88 ft | 7 kts | 353° |
| 2026-04-23 09:41 | 39.48371 | 116.42726 | 91 ft | 7 kts | 354° |
| 2026-04-23 09:41 | 39.48418 | 116.42720 | 88 ft | 7 kts | 355° |
| 2026-04-23 09:41 | 39.48463 | 116.42713 | 89 ft | 7 kts | 351° |
| 2026-04-23 09:42 | 39.48510 | 116.42704 | 92 ft | 8 kts | 351° |
| 2026-04-23 09:42 | 39.48577 | 116.42692 | 88 ft | 12 kts | 352° |
| 2026-04-23 09:42 | 39.48672 | 116.42677 | 91 ft | 16 kts | 353° |
| 2026-04-23 09:42 | 39.48791 | 116.42658 | 87 ft | 19 kts | 353° |
| 2026-04-23 09:43 | 39.48931 | 116.42636 | 90 ft | 22 kts | 353° |
| 2026-04-23 09:43 | 39.49091 | 116.42611 | 88 ft | 24 kts | 353° |
| 2026-04-23 09:43 | 39.49261 | 116.42584 | 89 ft | 26 kts | 353° |
| 2026-04-23 09:43 | 39.49441 | 116.42520 | 87 ft | 28 kts | 333° |
| 2026-04-23 09:44 | 39.49609 | 116.42415 | 88 ft | 27 kts | 349° |
| 2026-04-23 09:44 | 39.49792 | 116.42387 | 89 ft | 25 kts | 352° |
| 2026-04-23 09:44 | 39.49961 | 116.42359 | 87 ft | 24 kts | 353° |
| 2026-04-23 09:44 | 39.50121 | 116.42334 | 88 ft | 23 kts | 353° |
| 2026-04-23 09:45 | 39.50275 | 116.42310 | 87 ft | 22 kts | 353° |
| 2026-04-23 09:45 | 39.50425 | 116.42287 | 85 ft | 21 kts | 353° |
| 2026-04-23 09:45 | 39.50570 | 116.42264 | 85 ft | 21 kts | 353° |
| 2026-04-23 09:45 | 39.50709 | 116.42243 | 85 ft | 20 kts | 352° |
| 2026-04-23 09:46 | 39.50824 | 116.42214 | 84 ft | 6 kts | 310° |
| 2026-04-23 09:46 | 39.50827 | 116.42157 | 84 ft | 7 kts | 264° |
| 2026-04-23 09:46 | 39.50822 | 116.42098 | 84 ft | 6 kts | 264° |
| 2026-04-23 09:46 | 39.50817 | 116.42041 | 85 ft | 6 kts | 262° |
| 2026-04-23 09:47 | 39.50808 | 116.41987 | 84 ft | 6 kts | 251° |
| 2026-04-23 09:47 | 39.50785 | 116.41942 | 84 ft | 6 kts | 231° |
| 2026-04-23 09:47 | 39.50781 | 116.41890 | 84 ft | 6 kts | 285° |
| 2026-04-23 09:47 | 39.50786 | 116.41873 | 85 ft | 1 kts | 292° |
| 2026-04-23 09:48 | 39.50790 | 116.41861 | 85 ft | 1 kts | 294° |
| 2026-04-23 09:48 | 39.50794 | 116.41850 | 87 ft | 1 kts | 295° |
| 2026-04-23 09:48 | 39.50798 | 116.41839 | 84 ft | 1 kts | 295° |
| 2026-04-23 09:48 | 39.50799 | 116.41836 | 84 ft | 0 kts | 295° |